Time;durP1;ratioP1;P1;durP2;ratioP2;P2;SDS_P1;SDS_P2;PMS_P1;PMS_P2;Temp;Humidity;BMP_temperature;BMP_pressure;BME280_temperature;BME280_humidity;BME280_pressure;Samples;Min_cycle;Max_cycle;Signal;HPM_P1;HPM_P2
2023/03/15 00:01:38;;;;;;;2.10;1.88;;;7.90;77.90;;;;;;4918601;29;20028;-87
2023/03/15 00:04:06;;;;;;;2.10;1.60;;;7.90;77.90;;;;;;4918574;29;20032;-86
2023/03/15 00:06:33;;;;;;;2.13;1.60;;;7.90;78.00;;;;;;4919315;29;20123;-86
2023/03/15 00:09:00;;;;;;;2.15;1.70;;;7.90;78.00;;;;;;4902728;29;20032;-85
2023/03/15 00:11:27;;;;;;;1.67;1.58;;;7.80;77.90;;;;;;4918514;29;20036;-85
2023/03/15 00:13:53;;;;;;;2.30;1.63;;;7.80;77.90;;;;;;4903676;29;20032;-86
2023/03/15 00:16:18;;;;;;;1.80;1.52;;;7.80;77.90;;;;;;4903940;29;20042;-86
2023/03/15 00:18:45;;;;;;;1.67;1.40;;;7.80;78.00;;;;;;4903722;29;20036;-86
2023/03/15 00:21:12;;;;;;;1.65;1.50;;;7.80;78.00;;;;;;4919299;29;20034;-86
2023/03/15 00:23:38;;;;;;;1.95;1.70;;;7.80;78.00;;;;;;4935514;29;20036;-86
2023/03/15 00:26:04;;;;;;;1.60;1.50;;;7.70;77.90;;;;;;4904204;29;20032;-85
2023/03/15 00:28:30;;;;;;;1.75;1.60;;;7.80;78.00;;;;;;4919661;29;20146;-85
2023/03/15 00:31:12;;;;;;;1.70;1.58;;;7.70;78.00;;;;;;4935948;29;20426;-85
2023/03/15 00:33:38;;;;;;;1.60;1.50;;;7.70;78.00;;;;;;4936344;29;20036;-85
2023/03/15 00:36:06;;;;;;;1.50;1.40;;;7.70;78.00;;;;;;4902976;29;20475;-85
2023/03/15 00:38:33;;;;;;;1.75;1.50;;;7.70;78.00;;;;;;4902500;29;20024;-86
2023/03/15 00:41:10;;;;;;;1.92;1.60;;;7.60;78.00;;;;;;4903109;29;20024;-86
2023/03/15 00:43:36;;;;;;;1.60;1.50;;;7.60;78.00;;;;;;4902700;29;20028;-86
2023/03/15 00:46:02;;;;;;;1.60;1.50;;;7.60;78.00;;;;;;4902274;29;20027;-86
2023/03/15 00:48:28;;;;;;;1.60;1.50;;;7.60;78.00;;;;;;4902186;29;20032;-85
2023/03/15 00:51:02;;;;;;;1.65;1.40;;;7.60;78.10;;;;;;4920480;29;20044;-86
2023/03/15 00:53:28;;;;;;;1.50;1.40;;;7.50;78.10;;;;;;4907228;29;20036;-86
2023/03/15 00:55:54;;;;;;;1.83;1.45;;;7.50;78.00;;;;;;4903533;29;20389;-86
2023/03/15 00:58:20;;;;;;;1.60;1.50;;;7.50;78.10;;;;;;4902195;29;20489;-86
2023/03/15 01:00:46;;;;;;;1.65;1.55;;;7.50;78.10;;;;;;4917679;29;20047;-86
2023/03/15 01:03:12;;;;;;;1.48;1.38;;;7.50;78.10;;;;;;4917687;29;20046;-86
2023/03/15 01:05:37;;;;;;;1.80;1.70;;;7.50;78.10;;;;;;4901849;29;20135;-85
2023/03/15 01:08:04;;;;;;;1.50;1.40;;;7.50;78.10;;;;;;4885799;29;20032;-85
2023/03/15 01:10:29;;;;;;;1.60;1.50;;;7.40;78.00;;;;;;4902370;29;20032;-86
2023/03/15 01:12:55;;;;;;;1.60;1.50;;;7.40;78.10;;;;;;4918005;29;20183;-86
2023/03/15 01:15:21;;;;;;;1.63;1.52;;;7.40;78.10;;;;;;4901609;29;20454;-87
2023/03/15 01:17:47;;;;;;;1.65;1.55;;;7.40;78.10;;;;;;4901596;29;20032;-86
2023/03/15 01:20:14;;;;;;;1.50;1.40;;;7.30;78.10;;;;;;4901228;29;20032;-86
2023/03/15 01:22:41;;;;;;;1.50;1.40;;;7.30;78.10;;;;;;4901598;29;20032;-87
2023/03/15 01:25:08;;;;;;;1.70;1.60;;;7.30;78.10;;;;;;4901784;29;20051;-86
2023/03/15 01:27:34;;;;;;;1.80;1.70;;;7.30;78.10;;;;;;4901532;29;20029;-86
2023/03/15 01:30:00;;;;;;;2.47;1.90;;;7.30;78.10;;;;;;4916722;29;20040;-88
2023/03/15 01:32:26;;;;;;;1.75;1.60;;;7.30;78.20;;;;;;4901442;29;20089;-85
2023/03/15 01:34:52;;;;;;;1.90;1.80;;;7.30;78.20;;;;;;4885924;29;20460;-87
2023/03/15 01:37:18;;;;;;;1.80;1.70;;;7.20;78.10;;;;;;4901143;29;20046;-85
2023/03/15 01:39:44;;;;;;;1.88;1.77;;;7.20;78.10;;;;;;4885987;29;20059;-87
2023/03/15 01:42:10;;;;;;;2.03;1.88;;;7.20;78.20;;;;;;4901334;29;20290;-87
2023/03/15 01:45:00;;;;;;;1.77;1.67;;;7.20;78.20;;;;;;4902078;29;20521;-85
2023/03/15 01:47:27;;;;;;;2.08;1.88;;;7.20;78.90;;;;;;4902182;29;20036;-86
2023/03/15 01:50:05;;;;;;;1.73;1.63;;;7.20;78.20;;;;;;4932932;29;20050;-85
2023/03/15 01:52:39;;;;;;;1.90;1.80;;;7.20;78.20;;;;;;4901798;29;20036;-87
2023/03/15 01:55:10;;;;;;;1.92;1.77;;;7.10;78.20;;;;;;4901565;29;20034;-85
2023/03/15 01:57:47;;;;;;;1.95;1.77;;;7.10;78.20;;;;;;4917875;29;20112;-86
2023/03/15 02:00:17;;;;;;;1.90;1.80;;;7.10;78.20;;;;;;4901338;29;20473;-88
2023/03/15 02:03:15;;;;;;;2.03;1.85;;;7.10;78.20;;;;;;4916113;29;20092;-86
2023/03/15 02:05:48;;;;;;;2.00;1.90;;;7.10;78.20;;;;;;4916871;29;20095;-86
2023/03/15 02:08:31;;;;;;;2.15;1.95;;;7.00;78.20;;;;;;4918813;29;20092;-86
2023/03/15 02:11:00;;;;;;;2.10;1.90;;;7.10;78.20;;;;;;4885845;29;20437;-86
2023/03/15 02:13:29;;;;;;;2.10;1.88;;;7.00;78.20;;;;;;4886093;29;20076;-86
2023/03/15 02:15:58;;;;;;;1.80;1.70;;;7.00;78.20;;;;;;4901379;29;20421;-85
2023/03/15 02:18:34;;;;;;;2.15;1.90;;;7.00;78.20;;;;;;4901095;29;20032;-85
2023/03/15 02:21:06;;;;;;;2.50;2.13;;;7.00;78.20;;;;;;4900985;29;20040;-86
2023/03/15 02:23:32;;;;;;;2.20;2.00;;;7.00;78.20;;;;;;4916767;29;20040;-86
2023/03/15 02:26:23;;;;;;;2.13;1.92;;;7.00;78.20;;;;;;4916699;29;20442;-87
2023/03/15 02:28:50;;;;;;;1.90;1.80;;;7.00;78.30;;;;;;4916762;29;20485;-86
2023/03/15 02:31:19;;;;;;;1.70;1.60;;;7.00;78.30;;;;;;4885494;29;20107;-87
2023/03/15 02:33:50;;;;;;;1.80;1.70;;;6.90;78.20;;;;;;4885948;29;20128;-87
2023/03/15 02:36:20;;;;;;;2.03;1.88;;;7.00;78.30;;;;;;4916986;29;20028;-86
2023/03/15 02:38:49;;;;;;;2.00;1.80;;;6.90;78.20;;;;;;4932035;29;20470;-87
2023/03/15 02:41:21;;;;;;;2.20;2.00;;;6.90;78.20;;;;;;4932727;29;20134;-85
2023/03/15 02:43:48;;;;;;;1.90;1.80;;;6.90;78.30;;;;;;4920421;29;20032;-86
2023/03/15 02:46:15;;;;;;;2.40;2.20;;;6.90;78.30;;;;;;4903692;29;20074;-86
2023/03/15 02:48:42;;;;;;;2.20;1.80;;;6.90;78.30;;;;;;4904150;29;20052;-87
2023/03/15 02:51:18;;;;;;;2.05;1.92;;;6.90;78.30;;;;;;4919604;29;20080;-87
2023/03/15 02:53:44;;;;;;;2.10;1.90;;;6.90;78.30;;;;;;4888267;29;20068;-85
2023/03/15 02:56:10;;;;;;;2.38;2.17;;;6.80;78.30;;;;;;4903871;29;20063;-88
2023/03/15 02:58:36;;;;;;;2.40;2.20;;;6.80;78.20;;;;;;4903898;29;20392;-86
2023/03/15 03:01:01;;;;;;;2.45;2.22;;;6.80;78.30;;;;;;4904153;29;20048;-87
2023/03/15 03:03:27;;;;;;;2.55;2.30;;;6.80;78.20;;;;;;4919924;29;20398;-86
2023/03/15 03:05:53;;;;;;;2.40;2.20;;;6.80;78.30;;;;;;4889014;29;20032;-86
2023/03/15 03:08:19;;;;;;;2.35;2.15;;;6.80;78.30;;;;;;4921227;29;20032;-87
2023/03/15 03:10:45;;;;;;;2.35;2.15;;;6.80;78.30;;;;;;4903758;29;20039;-88
2023/03/15 03:13:11;;;;;;;2.63;2.33;;;6.70;78.30;;;;;;4903689;29;20040;-86
2023/03/15 03:15:38;;;;;;;2.65;2.45;;;6.70;78.30;;;;;;4919882;29;20571;-87
2023/03/15 03:18:06;;;;;;;2.50;2.30;;;6.70;78.30;;;;;;4919686;29;20063;-87
2023/03/15 03:20:32;;;;;;;2.60;2.25;;;6.70;78.30;;;;;;4919157;29;20485;-88
2023/03/15 03:22:58;;;;;;;2.53;2.33;;;6.70;78.40;;;;;;4919144;29;20043;-86
2023/03/15 03:25:26;;;;;;;2.67;2.40;;;6.70;79.00;;;;;;4919304;29;20033;-87
2023/03/15 03:27:55;;;;;;;2.85;2.55;;;6.70;78.40;;;;;;4919834;29;20453;-86
2023/03/15 03:30:23;;;;;;;2.53;2.33;;;6.60;78.30;;;;;;4918824;29;20449;-88
2023/03/15 03:32:50;;;;;;;3.03;2.53;;;6.70;78.40;;;;;;4903230;29;20075;-88
2023/03/15 03:35:16;;;;;;;2.70;2.50;;;6.60;78.30;;;;;;4920148;29;20119;-86
2023/03/15 03:37:42;;;;;;;2.95;2.65;;;6.60;78.30;;;;;;4904090;29;20020;-88
2023/03/15 03:40:14;;;;;;;3.22;2.80;;;6.60;78.30;;;;;;4919864;29;20044;-87
2023/03/15 03:42:40;;;;;;;3.20;2.72;;;6.60;78.40;;;;;;4920462;29;20032;-86
2023/03/15 03:45:06;;;;;;;2.90;2.60;;;6.60;78.30;;;;;;4888596;29;20116;-87
2023/03/15 03:47:37;;;;;;;3.50;2.90;;;6.60;78.30;;;;;;4919348;29;20373;-88
2023/03/15 03:50:03;;;;;;;3.50;2.92;;;6.50;78.30;;;;;;4918522;29;20135;-87
2023/03/15 03:52:29;;;;;;;3.10;2.70;;;6.50;78.30;;;;;;4919063;29;20035;-86
2023/03/15 03:55:03;;;;;;;3.53;2.80;;;6.50;78.30;;;;;;4918070;29;20058;-87
2023/03/15 03:57:29;;;;;;;3.80;2.72;;;6.50;78.30;;;;;;4919345;29;20535;-86
2023/03/15 03:59:57;;;;;;;3.28;2.97;;;6.50;78.30;;;;;;4918494;29;20071;-86
2023/03/15 04:02:23;;;;;;;3.08;2.78;;;6.50;78.40;;;;;;4934542;29;20036;-88
2023/03/15 04:04:58;;;;;;;2.97;2.67;;;6.50;78.40;;;;;;4903073;29;20064;-87
2023/03/15 04:07:24;;;;;;;3.45;2.80;;;6.50;78.40;;;;;;4887410;29;20412;-86
2023/03/15 04:09:51;;;;;;;3.47;2.80;;;6.40;78.30;;;;;;4918997;29;20043;-86
2023/03/15 04:12:17;;;;;;;3.92;3.30;;;6.40;78.30;;;;;;4918281;29;20036;-86
2023/03/15 04:14:46;;;;;;;3.67;3.08;;;6.40;78.40;;;;;;4918089;29;20110;-87
2023/03/15 04:17:13;;;;;;;3.95;3.08;;;6.40;78.40;;;;;;4918445;29;20039;-87
2023/03/15 04:19:40;;;;;;;3.30;2.78;;;6.40;78.40;;;;;;4902351;29;20040;-88
2023/03/15 04:22:08;;;;;;;3.83;3.30;;;6.40;78.40;;;;;;4886997;29;20102;-86
2023/03/15 04:24:52;;;;;;;3.75;2.90;;;6.30;78.30;;;;;;4921018;29;20087;-89
2023/03/15 04:27:37;;;;;;;4.05;3.08;;;6.30;78.30;;;;;;4905053;29;20043;-88
2023/03/15 04:30:16;;;;;;;3.70;2.97;;;6.30;78.30;;;;;;4916475;29;20127;-87
2023/03/15 04:32:57;;;;;;;3.50;3.20;;;6.30;78.30;;;;;;4917012;29;20048;-87
2023/03/15 04:35:58;;;;;;;3.72;3.10;;;6.20;78.30;;;;;;4916949;29;20028;-86
2023/03/15 04:38:38;;;;;;;3.95;2.90;;;6.20;78.30;;;;;;4902565;29;20039;-88
2023/03/15 04:41:26;;;;;;;4.35;3.15;;;6.20;78.30;;;;;;4902456;29;20059;-87
2023/03/15 04:44:15;;;;;;;3.25;2.67;;;6.20;78.30;;;;;;4901932;29;20071;-86
2023/03/15 04:46:59;;;;;;;3.97;3.10;;;6.20;78.40;;;;;;4918173;29;20051;-86
2023/03/15 04:49:36;;;;;;;3.40;3.10;;;6.10;78.30;;;;;;4916256;29;20055;-87
2023/03/15 04:52:21;;;;;;;3.97;3.00;;;6.10;78.40;;;;;;4918106;29;20055;-87
2023/03/15 04:55:07;;;;;;;3.78;2.88;;;6.10;78.40;;;;;;4894694;29;20280;-88
2023/03/15 04:57:56;;;;;;;3.15;2.78;;;6.10;78.40;;;;;;4920983;29;20062;-87
2023/03/15 05:00:48;;;;;;;3.38;3.00;;;6.10;78.40;;;;;;4902494;29;20036;-88
2023/03/15 05:03:27;;;;;;;3.65;2.88;;;6.10;78.40;;;;;;4887833;29;20035;-86
2023/03/15 05:05:55;;;;;;;4.18;3.30;;;6.10;78.40;;;;;;4916462;29;20048;-86
2023/03/15 05:08:54;;;;;;;4.40;2.72;;;6.00;78.30;;;;;;4876314;29;20040;-87
2023/03/15 05:11:43;;;;;;;4.05;3.25;;;6.10;78.40;;;;;;4910086;29;20037;-87
2023/03/15 05:14:36;;;;;;;3.80;2.80;;;6.10;78.40;;;;;;4904961;29;20099;-87
2023/03/15 05:17:10;;;;;;;3.70;3.13;;;6.00;78.30;;;;;;4886914;29;20032;-87
2023/03/15 05:20:09;;;;;;;3.67;3.00;;;6.00;78.30;;;;;;4913228;29;20191;-86
2023/03/15 05:22:47;;;;;;;3.80;3.10;;;6.00;78.30;;;;;;4930741;29;20046;-90
2023/03/15 05:25:29;;;;;;;3.75;3.00;;;6.00;78.30;;;;;;4915252;29;20039;-86
2023/03/15 05:28:17;;;;;;;4.07;3.20;;;5.90;78.30;;;;;;4904157;29;20067;-86
2023/03/15 05:30:55;;;;;;;4.43;3.30;;;6.00;78.40;;;;;;4932080;29;20064;-87
2023/03/15 05:33:45;;;;;;;3.30;2.70;;;6.00;78.40;;;;;;4888949;29;20024;-86
2023/03/15 05:36:20;;;;;;;3.55;3.13;;;5.90;78.30;;;;;;4918854;29;20043;-87
2023/03/15 05:39:04;;;;;;;4.25;3.20;;;5.90;78.30;;;;;;4904358;29;20058;-87
2023/03/15 05:41:49;;;;;;;4.40;3.40;;;5.90;78.40;;;;;;4903791;29;20414;-85
2023/03/15 05:44:29;;;;;;;4.50;3.45;;;5.90;78.40;;;;;;4901784;29;20176;-86
2023/03/15 05:47:21;;;;;;;4.18;3.22;;;5.90;78.40;;;;;;4902918;29;20040;-87
2023/03/15 05:50:16;;;;;;;3.92;3.25;;;5.90;78.40;;;;;;4900883;29;20055;-86
2023/03/15 05:52:56;;;;;;;4.25;3.35;;;5.80;78.30;;;;;;4915311;29;20043;-87
2023/03/15 05:55:48;;;;;;;3.63;3.00;;;5.80;78.30;;;;;;4902144;29;20039;-86
2023/03/15 05:58:34;;;;;;;4.60;3.25;;;5.80;78.40;;;;;;4910355;29;20063;-87
2023/03/15 06:01:20;;;;;;;4.63;3.53;;;5.80;78.40;;;;;;4916326;29;20051;-87
2023/03/15 06:04:12;;;;;;;4.90;3.70;;;5.80;78.50;;;;;;4926189;29;20048;-87
2023/03/15 06:06:38;;;;;;;5.22;3.33;;;5.70;78.30;;;;;;4917185;29;20060;-86
2023/03/15 06:09:07;;;;;;;4.93;3.65;;;5.70;78.40;;;;;;4900879;29;20036;-86
2023/03/15 06:11:33;;;;;;;4.53;3.42;;;5.70;78.40;;;;;;4916838;29;20040;-86
2023/03/15 06:14:00;;;;;;;5.03;3.67;;;5.70;78.50;;;;;;4917043;29;20354;-86
2023/03/15 06:16:35;;;;;;;4.57;3.38;;;5.70;78.40;;;;;;4901622;29;20036;-86
2023/03/15 06:19:03;;;;;;;4.95;3.67;;;5.70;78.40;;;;;;4903930;29;20060;-84
2023/03/15 06:21:29;;;;;;;4.97;4.00;;;5.70;78.40;;;;;;4904773;29;20024;-88
2023/03/15 06:23:55;;;;;;;4.95;4.05;;;5.60;78.30;;;;;;4920671;29;20032;-82
2023/03/15 06:26:21;;;;;;;5.00;3.90;;;5.70;78.40;;;;;;4904899;29;20032;-87
2023/03/15 06:28:50;;;;;;;5.78;4.18;;;5.60;78.40;;;;;;4920704;29;20035;-86
2023/03/15 06:31:16;;;;;;;4.70;3.72;;;5.60;78.40;;;;;;4921212;29;20021;-87
2023/03/15 06:34:00;;;;;;;4.90;3.42;;;5.60;78.40;;;;;;4904716;29;20032;-85
2023/03/15 06:36:26;;;;;;;5.72;3.88;;;5.60;78.40;;;;;;4921117;29;20364;-86
2023/03/15 06:38:53;;;;;;;5.63;4.00;;;5.60;78.40;;;;;;4919927;29;20104;-86
2023/03/15 06:41:20;;;;;;;5.10;4.03;;;5.50;78.40;;;;;;4936082;29;20362;-85
2023/03/15 06:43:48;;;;;;;4.85;3.63;;;5.50;78.40;;;;;;4920242;29;20063;-87
2023/03/15 06:46:14;;;;;;;5.13;3.90;;;5.50;78.40;;;;;;4904855;29;20028;-88
2023/03/15 06:48:40;;;;;;;5.05;3.90;;;5.50;78.40;;;;;;4904569;29;20028;-88
2023/03/15 06:51:08;;;;;;;5.95;4.53;;;5.50;79.00;;;;;;4889023;29;20386;-85
2023/03/15 06:53:34;;;;;;;5.03;4.05;;;5.50;78.40;;;;;;4904366;29;20109;-88
2023/03/15 06:56:00;;;;;;;5.28;4.18;;;5.50;78.40;;;;;;4903785;29;20485;-86
2023/03/15 06:58:25;;;;;;;4.95;4.07;;;5.50;78.40;;;;;;4903535;29;20028;-87
2023/03/15 07:00:51;;;;;;;5.30;4.22;;;5.50;78.50;;;;;;4935412;29;20037;-88
2023/03/15 07:03:18;;;;;;;5.85;4.30;;;5.40;78.40;;;;;;4904365;29;20032;-89
2023/03/15 07:05:45;;;;;;;5.20;4.03;;;5.50;78.50;;;;;;4919194;29;20040;-88
2023/03/15 07:08:11;;;;;;;4.95;3.70;;;5.40;78.40;;;;;;4903862;29;20032;-85
2023/03/15 07:10:36;;;;;;;4.93;4.10;;;5.50;78.50;;;;;;4903830;29;20441;-88
2023/03/15 07:13:03;;;;;;;5.10;4.20;;;5.40;78.40;;;;;;4920104;29;20039;-88
2023/03/15 07:15:29;;;;;;;6.47;4.45;;;5.40;78.40;;;;;;4904032;29;20040;-89
2023/03/15 07:17:56;;;;;;;5.68;4.03;;;5.40;78.40;;;;;;4920381;29;20473;-87
2023/03/15 07:20:22;;;;;;;5.25;4.35;;;5.40;78.40;;;;;;4919671;29;20126;-92
2023/03/15 07:22:48;;;;;;;5.32;4.03;;;5.40;78.40;;;;;;4904104;29;20367;-90
2023/03/15 07:25:14;;;;;;;5.20;4.15;;;5.40;78.40;;;;;;4888793;29;20056;-92
2023/03/15 07:27:40;;;;;;;5.75;4.07;;;5.40;78.30;;;;;;4903282;29;20020;-89
2023/03/15 07:30:07;;;;;;;5.53;4.05;;;5.40;78.40;;;;;;4903544;29;20044;-92
2023/03/15 07:32:33;;;;;;;4.90;4.00;;;5.40;78.40;;;;;;4919380;29;20065;-90
2023/03/15 07:34:59;;;;;;;4.95;3.80;;;5.30;78.30;;;;;;4919372;29;20040;-88
2023/03/15 07:37:27;;;;;;;5.13;3.85;;;5.30;78.40;;;;;;4904110;29;20095;-91
2023/03/15 07:39:53;;;;;;;5.60;3.95;;;5.40;78.40;;;;;;4903318;29;20044;-90
2023/03/15 07:42:19;;;;;;;6.00;3.80;;;5.30;78.40;;;;;;4903442;29;20039;-89
2023/03/15 07:44:49;;;;;;;5.13;3.95;;;5.40;78.40;;;;;;4903264;29;20040;-89
2023/03/15 07:47:15;;;;;;;5.13;3.95;;;5.40;78.40;;;;;;4918996;29;20056;-89
2023/03/15 07:49:41;;;;;;;4.70;3.55;;;5.30;78.40;;;;;;4887119;29;20056;-89
2023/03/15 07:52:07;;;;;;;5.35;4.07;;;5.30;78.40;;;;;;4919639;29;20028;-88
2023/03/15 07:54:33;;;;;;;4.55;3.65;;;5.30;78.40;;;;;;4903173;29;20051;-89
2023/03/15 07:56:59;;;;;;;5.20;3.80;;;5.40;78.40;;;;;;4919015;29;20032;-90
2023/03/15 07:59:25;;;;;;;4.95;3.85;;;5.40;78.40;;;;;;4934368;29;20040;-94
2023/03/15 08:01:51;;;;;;;4.72;3.72;;;5.30;78.30;;;;;;4934518;29;20032;-92
2023/03/15 08:04:17;;;;;;;4.47;3.55;;;5.40;78.40;;;;;;4920250;29;20178;-91
2023/03/15 08:06:42;;;;;;;4.80;3.42;;;5.40;78.40;;;;;;4919039;29;20024;-90
2023/03/15 08:09:08;;;;;;;4.40;3.53;;;5.40;78.40;;;;;;4902445;29;20040;-89
2023/03/15 08:11:34;;;;;;;5.00;3.70;;;5.30;78.30;;;;;;4919017;29;20472;-91
2023/03/15 08:14:00;;;;;;;5.15;3.35;;;5.40;78.40;;;;;;4934374;29;20032;-89
2023/03/15 08:16:26;;;;;;;4.68;3.47;;;5.40;78.40;;;;;;4887741;29;20099;-90
2023/03/15 08:18:51;;;;;;;5.07;3.60;;;5.40;78.40;;;;;;4918626;29;20070;-91
2023/03/15 08:21:17;;;;;;;4.22;3.30;;;5.40;78.40;;;;;;4887157;29;20023;-91
2023/03/15 08:23:43;;;;;;;4.47;3.33;;;5.40;78.40;;;;;;4903174;29;20028;-90
2023/03/15 08:26:09;;;;;;;4.90;3.70;;;5.40;78.40;;;;;;4919903;29;20020;-88
2023/03/15 08:28:35;;;;;;;4.10;2.90;;;5.40;78.40;;;;;;4922551;29;20457;-89
2023/03/15 08:31:06;;;;;;;5.68;3.70;;;5.40;78.40;;;;;;4921318;29;20047;-89
2023/03/15 08:33:35;;;;;;;3.95;3.20;;;5.40;78.40;;;;;;4905603;29;20028;-89
2023/03/15 08:36:01;;;;;;;4.05;3.05;;;5.40;78.40;;;;;;4903562;29;20020;-89
2023/03/15 08:38:27;;;;;;;3.47;2.85;;;5.40;78.40;;;;;;4919416;29;20032;-90
2023/03/15 08:40:56;;;;;;;4.50;3.35;;;5.40;78.40;;;;;;4902997;29;20032;-89
2023/03/15 08:43:22;;;;;;;4.50;3.15;;;5.40;78.40;;;;;;4919879;29;20028;-90
2023/03/15 08:45:49;;;;;;;4.55;3.08;;;5.40;78.40;;;;;;4903213;29;20032;-89
2023/03/15 08:48:15;;;;;;;4.00;3.03;;;5.40;78.40;;;;;;4902497;29;20024;-89
2023/03/15 08:50:41;;;;;;;4.82;3.22;;;5.40;78.40;;;;;;4900044;29;20059;-89
2023/03/15 08:53:08;;;;;;;4.95;3.70;;;5.40;78.40;;;;;;4934345;29;20032;-90
2023/03/15 08:55:34;;;;;;;4.53;2.90;;;5.40;78.50;;;;;;4886885;29;20016;-90
2023/03/15 08:58:00;;;;;;;4.20;2.90;;;5.50;78.50;;;;;;4917711;29;20027;-89
2023/03/15 09:00:27;;;;;;;3.80;3.05;;;5.50;78.50;;;;;;4917854;29;20048;-89
2023/03/15 09:02:54;;;;;;;4.00;3.10;;;5.50;78.50;;;;;;4917557;29;20030;-89
2023/03/15 09:05:23;;;;;;;4.07;2.95;;;5.40;78.40;;;;;;4901932;29;20056;-90
2023/03/15 09:07:51;;;;;;;3.10;2.53;;;5.50;78.40;;;;;;4902105;29;20032;-90
2023/03/15 09:10:18;;;;;;;4.13;3.13;;;5.50;78.40;;;;;;4886771;29;20052;-91
2023/03/15 09:12:47;;;;;;;5.97;3.20;;;5.50;78.40;;;;;;4917957;29;20532;-91
2023/03/15 09:15:14;;;;;;;3.95;3.03;;;5.50;78.30;;;;;;4933718;29;20568;-89
2023/03/15 09:17:41;;;;;;;4.20;2.97;;;5.60;78.30;;;;;;4901925;29;20028;-90
2023/03/15 09:20:17;;;;;;;3.72;2.78;;;5.60;78.30;;;;;;4918649;29;20036;-87
2023/03/15 09:22:52;;;;;;;3.42;2.80;;;5.60;78.30;;;;;;4901719;29;20047;-90
2023/03/15 09:25:19;;;;;;;3.63;2.95;;;5.70;78.30;;;;;;4902386;29;20479;-89
2023/03/15 09:27:45;;;;;;;3.40;2.58;;;5.70;78.20;;;;;;4903537;29;20031;-89
2023/03/15 09:30:12;;;;;;;3.00;2.53;;;5.70;78.20;;;;;;4901918;29;20032;-90
2023/03/15 09:32:38;;;;;;;3.25;2.50;;;5.80;78.20;;;;;;4933629;29;20090;-91
2023/03/15 09:35:06;;;;;;;3.15;2.25;;;5.80;78.20;;;;;;4901866;29;20104;-90
2023/03/15 09:37:32;;;;;;;3.72;2.50;;;5.90;78.20;;;;;;4886258;29;20466;-91
2023/03/15 09:39:58;;;;;;;3.00;2.30;;;5.90;78.10;;;;;;4901637;29;20111;-92
2023/03/15 09:42:33;;;;;;;3.35;2.60;;;6.00;78.10;;;;;;4918100;29;20052;-91
2023/03/15 09:45:08;;;;;;;3.92;2.38;;;6.00;78.20;;;;;;4917632;29;20040;-91
2023/03/15 09:47:53;;;;;;;4.33;2.40;;;6.10;78.10;;;;;;4917511;29;20032;-88
2023/03/15 09:50:24;;;;;;;2.42;2.20;;;6.10;78.00;;;;;;4916930;29;20067;-90
2023/03/15 09:53:04;;;;;;;2.55;2.30;;;6.20;78.00;;;;;;4920483;29;20545;-89
2023/03/15 09:55:30;;;;;;;3.35;2.47;;;6.30;78.00;;;;;;4937760;29;20055;-89
2023/03/15 09:58:01;;;;;;;3.13;2.53;;;6.30;77.90;;;;;;4905250;29;20080;-89
2023/03/15 10:00:53;;;;;;;4.13;2.20;;;6.30;77.90;;;;;;4905338;29;20047;-89
2023/03/15 10:03:48;;;;;;;3.53;2.20;;;6.40;78.00;;;;;;4898693;29;20072;-89
2023/03/15 10:06:33;;;;;;;2.85;2.35;;;6.50;77.90;;;;;;4921632;29;20032;-89
2023/03/15 10:09:02;;;;;;;2.67;2.40;;;6.60;77.80;;;;;;4921399;29;20034;-89
2023/03/15 10:12:04;;;;;;;2.45;2.00;;;6.60;77.70;;;;;;4889554;29;20028;-88
2023/03/15 10:14:48;;;;;;;2.55;1.95;;;6.70;77.80;;;;;;4905447;29;20095;-88
2023/03/15 10:17:19;;;;;;;2.92;2.08;;;6.80;77.70;;;;;;4937082;29;20111;-88
2023/03/15 10:19:49;;;;;;;2.97;2.10;;;6.80;77.60;;;;;;4921174;29;20040;-89
2023/03/15 10:22:28;;;;;;;3.20;2.20;;;6.90;77.60;;;;;;4921547;29;20469;-90
2023/03/15 10:24:59;;;;;;;3.80;2.22;;;7.00;77.70;;;;;;4937877;29;20055;-87
2023/03/15 10:27:36;;;;;;;2.30;2.10;;;7.10;77.60;;;;;;4922212;29;20179;-88
2023/03/15 10:30:15;;;;;;;2.65;2.08;;;7.20;77.60;;;;;;4923319;29;20028;-89
2023/03/15 10:32:43;;;;;;;2.00;1.80;;;7.30;77.60;;;;;;4906745;29;20176;-88
2023/03/15 10:35:18;;;;;;;3.13;2.15;;;7.40;77.50;;;;;;4891780;29;20017;-89
2023/03/15 10:37:44;;;;;;;2.22;1.98;;;7.40;77.50;;;;;;4907893;29;20036;-89
2023/03/15 10:40:15;;;;;;;2.50;2.00;;;7.50;77.40;;;;;;4925056;29;20040;-89
2023/03/15 10:42:45;;;;;;;3.65;2.08;;;7.60;77.40;;;;;;4938125;29;20056;-88
2023/03/15 10:45:23;;;;;;;2.40;2.10;;;7.70;77.50;;;;;;4922342;29;20036;-89
2023/03/15 10:47:51;;;;;;;3.10;1.77;;;7.80;77.50;;;;;;4938174;29;20564;-90
2023/03/15 10:50:28;;;;;;;2.13;1.92;;;7.90;77.40;;;;;;4921803;29;20138;-85
2023/03/15 10:52:57;;;;;;;2.60;2.00;;;8.00;77.50;;;;;;4923496;29;20062;-86
2023/03/15 10:55:36;;;;;;;2.13;1.92;;;8.10;77.30;;;;;;4922487;29;20067;-92
2023/03/15 10:58:26;;;;;;;2.80;1.73;;;8.20;77.40;;;;;;4890744;29;20083;-87
2023/03/15 11:00:59;;;;;;;2.65;2.03;;;8.30;77.40;;;;;;4920659;29;20031;-88
2023/03/15 11:03:26;;;;;;;2.97;1.95;;;8.40;77.30;;;;;;4904992;29;20036;-83
2023/03/15 11:05:54;;;;;;;2.78;1.90;;;8.40;77.20;;;;;;4920355;29;20122;-85
2023/03/15 11:08:39;;;;;;;2.75;1.90;;;8.50;77.80;;;;;;4904650;29;20096;-89
2023/03/15 11:11:05;;;;;;;1.70;1.60;;;8.60;77.30;;;;;;4888975;29;20028;-84
2023/03/15 11:13:34;;;;;;;2.95;1.98;;;8.70;77.10;;;;;;4904434;29;20190;-85
2023/03/15 11:16:02;;;;;;;2.13;1.90;;;8.80;77.20;;;;;;4920879;29;20032;-84
2023/03/15 11:19:03;;;;;;;2.15;1.63;;;8.90;77.20;;;;;;4935754;29;20059;-88
2023/03/15 11:21:32;;;;;;;1.90;1.70;;;9.00;77.40;;;;;;4887906;29;20580;-84
2023/03/15 11:24:00;;;;;;;2.65;1.77;;;9.10;77.20;;;;;;4903610;29;20028;-86
2023/03/15 11:26:28;;;;;;;2.00;1.35;;;9.10;77.20;;;;;;4935656;29;20039;-83
2023/03/15 11:29:07;;;;;;;1.73;1.63;;;9.20;77.20;;;;;;4903539;29;20454;-83
2023/03/15 11:31:34;;;;;;;2.72;1.60;;;9.30;77.30;;;;;;4887445;29;20036;-84
2023/03/15 11:34:26;;;;;;;2.28;1.60;;;9.30;77.30;;;;;;4919239;29;20028;-84
2023/03/15 11:36:58;;;;;;;2.50;1.67;;;9.40;77.40;;;;;;4935685;29;20446;-83
2023/03/15 11:39:48;;;;;;;3.92;1.60;;;9.50;77.30;;;;;;4935064;29;20040;-84
2023/03/15 11:42:25;;;;;;;2.13;1.48;;;9.50;77.50;;;;;;4935406;29;20386;-83
2023/03/15 11:44:57;;;;;;;2.60;1.83;;;9.60;77.40;;;;;;4903247;29;20036;-84
2023/03/15 11:47:42;;;;;;;3.15;1.98;;;9.70;77.40;;;;;;4935025;29;20421;-84
2023/03/15 11:50:13;;;;;;;1.70;1.60;;;9.70;77.40;;;;;;4887401;29;20140;-84
2023/03/15 11:52:40;;;;;;;1.40;1.30;;;9.80;77.40;;;;;;4902944;29;20028;-85
2023/03/15 11:55:06;;;;;;;1.77;1.48;;;9.80;77.40;;;;;;4934515;29;20051;-85
2023/03/15 11:57:46;;;;;;;2.45;1.67;;;9.90;77.50;;;;;;4919117;29;20131;-86
2023/03/15 12:00:33;;;;;;;1.85;1.50;;;9.90;77.50;;;;;;4934924;29;20040;-86
2023/03/15 12:03:22;;;;;;;1.95;1.50;;;9.90;77.50;;;;;;4918737;29;20541;-85
2023/03/15 12:05:58;;;;;;;1.42;1.33;;;10.00;77.60;;;;;;4904202;29;20052;-82
2023/03/15 12:08:43;;;;;;;1.88;1.40;;;10.00;77.50;;;;;;4918970;29;20051;-85
2023/03/15 12:11:11;;;;;;;2.10;1.40;;;10.10;77.60;;;;;;4918910;29;20074;-85
2023/03/15 12:13:37;;;;;;;1.65;1.45;;;10.10;77.50;;;;;;4887743;29;20028;-86
2023/03/15 12:16:05;;;;;;;2.55;1.60;;;10.20;77.60;;;;;;4918038;29;20032;-86
2023/03/15 12:18:53;;;;;;;2.70;1.50;;;10.20;77.70;;;;;;4918584;29;20489;-86
2023/03/15 12:21:40;;;;;;;3.40;1.60;;;10.30;77.90;;;;;;4902842;29;20036;-86
2023/03/15 12:24:19;;;;;;;2.45;1.50;;;10.30;77.90;;;;;;4902986;29;20028;-87
2023/03/15 12:27:19;;;;;;;2.15;1.38;;;10.40;77.90;;;;;;4918820;29;20036;-85
2023/03/15 12:29:57;;;;;;;2.90;1.58;;;10.40;77.90;;;;;;4866881;29;20039;-86
2023/03/15 12:32:23;;;;;;;1.83;1.30;;;10.40;77.80;;;;;;4902657;29;20461;-86
2023/03/15 12:34:52;;;;;;;2.08;1.50;;;10.50;77.80;;;;;;4887593;29;20064;-85
2023/03/15 12:37:27;;;;;;;1.55;1.45;;;10.50;77.90;;;;;;4902626;29;20064;-86
2023/03/15 12:40:15;;;;;;;1.65;1.42;;;10.60;78.60;;;;;;4918089;29;20516;-87
2023/03/15 12:42:41;;;;;;;1.33;1.20;;;10.60;78.00;;;;;;4933778;29;20437;-87
2023/03/15 12:45:37;;;;;;;2.38;1.50;;;10.70;77.90;;;;;;4917777;29;20024;-87
2023/03/15 12:48:07;;;;;;;2.10;1.30;;;10.70;78.00;;;;;;4898679;29;20040;-86
2023/03/15 12:50:51;;;;;;;1.48;1.25;;;10.80;77.90;;;;;;4933876;29;20052;-87
2023/03/15 12:53:37;;;;;;;1.55;1.40;;;10.80;78.00;;;;;;4901920;29;20032;-86
2023/03/15 12:56:18;;;;;;;1.77;1.40;;;10.80;77.90;;;;;;4917670;29;20036;-86
2023/03/15 12:58:47;;;;;;;1.35;1.25;;;10.80;77.90;;;;;;4933373;29;20039;-88
2023/03/15 13:01:17;;;;;;;1.50;1.40;;;10.90;78.60;;;;;;4901793;29;20127;-87
2023/03/15 13:03:43;;;;;;;1.40;1.20;;;10.90;77.90;;;;;;4885898;29;20044;-86
2023/03/15 13:06:23;;;;;;;1.77;1.30;;;11.00;78.00;;;;;;4901798;29;20032;-86
2023/03/15 13:09:05;;;;;;;1.48;1.20;;;11.00;78.10;;;;;;4933569;29;20028;-84
2023/03/15 13:11:52;;;;;;;1.33;1.20;;;11.10;78.20;;;;;;4917396;29;20032;-86
2023/03/15 13:15:08;;;;;;;1.50;1.20;;;11.10;78.10;;;;;;4918016;29;20083;-87
2023/03/15 13:18:02;;;;;;;1.63;1.20;;;11.10;78.10;;;;;;4896679;29;20041;-86
2023/03/15 13:20:40;;;;;;;1.48;1.35;;;11.20;78.10;;;;;;4917754;29;20028;-85
2023/03/15 13:23:21;;;;;;;1.10;1.10;;;11.20;78.10;;;;;;4918073;29;20458;-87